sensor_id;sensor_type;location;lat;lon;timestamp;temperature;humidity
33093;DHT22;19456;46.104;12.908;2023-04-01T00:01:54;9.70;99.90
33093;DHT22;19456;46.104;12.908;2023-04-01T00:04:20;9.70;99.90
33093;DHT22;19456;46.104;12.908;2023-04-01T00:06:46;9.60;99.90
33093;DHT22;19456;46.104;12.908;2023-04-01T00:09:13;9.50;99.90
33093;DHT22;19456;46.104;12.908;2023-04-01T00:11:38;9.40;99.90
33093;DHT22;19456;46.104;12.908;2023-04-01T00:14:05;9.40;99.90
33093;DHT22;19456;46.104;12.908;2023-04-01T00:16:30;9.40;99.90
33093;DHT22;19456;46.104;12.908;2023-04-01T00:18:56;9.50;99.90
33093;DHT22;19456;46.104;12.908;2023-04-01T00:21:22;9.50;99.90
33093;DHT22;19456;46.104;12.908;2023-04-01T00:23:48;9.40;99.90
33093;DHT22;19456;46.104;12.908;2023-04-01T00:26:13;9.40;99.90
33093;DHT22;19456;46.104;12.908;2023-04-01T00:28:40;9.40;99.90
33093;DHT22;19456;46.104;12.908;2023-04-01T00:31:06;9.50;99.90
33093;DHT22;19456;46.104;12.908;2023-04-01T00:33:32;9.50;99.90
33093;DHT22;19456;46.104;12.908;2023-04-01T00:36:05;9.50;99.90
33093;DHT22;19456;46.104;12.908;2023-04-01T00:38:31;9.50;99.90
33093;DHT22;19456;46.104;12.908;2023-04-01T00:40:57;9.60;99.90
33093;DHT22;19456;46.104;12.908;2023-04-01T00:43:23;9.40;99.90
33093;DHT22;19456;46.104;12.908;2023-04-01T00:45:49;9.40;99.90
33093;DHT22;19456;46.104;12.908;2023-04-01T00:50:40;9.20;99.90
33093;DHT22;19456;46.104;12.908;2023-04-01T00:53:08;9.00;99.90
33093;DHT22;19456;46.104;12.908;2023-04-01T00:55:35;8.80;99.90
33093;DHT22;19456;46.104;12.908;2023-04-01T00:58:03;8.70;99.90
33093;DHT22;19456;46.104;12.908;2023-04-01T01:00:30;8.80;99.90
33093;DHT22;19456;46.104;12.908;2023-04-01T01:02:56;8.90;99.90
33093;DHT22;19456;46.104;12.908;2023-04-01T01:05:25;9.00;99.90
33093;DHT22;19456;46.104;12.908;2023-04-01T01:07:56;9.10;99.90
33093;DHT22;19456;46.104;12.908;2023-04-01T01:10:32;9.20;99.90
33093;DHT22;19456;46.104;12.908;2023-04-01T01:21:47;9.40;99.90
33093;DHT22;19456;46.104;12.908;2023-04-01T01:37:16;8.90;99.90
33093;DHT22;19456;46.104;12.908;2023-04-01T01:39:43;8.90;99.90
33093;DHT22;19456;46.104;12.908;2023-04-01T01:42:11;8.90;99.90
33093;DHT22;19456;46.104;12.908;2023-04-01T01:44:38;9.00;99.90
33093;DHT22;19456;46.104;12.908;2023-04-01T01:47:04;9.20;99.90
33093;DHT22;19456;46.104;12.908;2023-04-01T01:49:30;9.40;99.90
33093;DHT22;19456;46.104;12.908;2023-04-01T01:51:57;9.50;99.90
33093;DHT22;19456;46.104;12.908;2023-04-01T01:54:23;9.50;99.90
33093;DHT22;19456;46.104;12.908;2023-04-01T01:56:49;9.50;99.90
33093;DHT22;19456;46.104;12.908;2023-04-01T01:59:16;9.50;99.90
33093;DHT22;19456;46.104;12.908;2023-04-01T02:01:43;9.50;99.90
33093;DHT22;19456;46.104;12.908;2023-04-01T02:04:11;9.40;99.90
33093;DHT22;19456;46.104;12.908;2023-04-01T02:06:39;9.50;99.90
33093;DHT22;19456;46.104;12.908;2023-04-01T02:09:06;9.30;99.90
33093;DHT22;19456;46.104;12.908;2023-04-01T02:11:46;8.80;99.90
33093;DHT22;19456;46.104;12.908;2023-04-01T02:14:13;8.70;99.90
33093;DHT22;19456;46.104;12.908;2023-04-01T02:19:06;8.40;99.90
33093;DHT22;19456;46.104;12.908;2023-04-01T02:21:35;8.40;99.90
33093;DHT22;19456;46.104;12.908;2023-04-01T02:24:02;8.30;99.90
33093;DHT22;19456;46.104;12.908;2023-04-01T02:26:29;8.20;99.90
33093;DHT22;19456;46.104;12.908;2023-04-01T02:28:55;8.10;99.90
33093;DHT22;19456;46.104;12.908;2023-04-01T02:31:21;8.20;99.90
33093;DHT22;19456;46.104;12.908;2023-04-01T02:33:48;8.00;99.90
33093;DHT22;19456;46.104;12.908;2023-04-01T02:36:14;7.90;99.90
33093;DHT22;19456;46.104;12.908;2023-04-01T02:38:41;7.90;99.90
33093;DHT22;19456;46.104;12.908;2023-04-01T02:41:07;8.00;99.90
33093;DHT22;19456;46.104;12.908;2023-04-01T02:43:32;8.10;99.90
33093;DHT22;19456;46.104;12.908;2023-04-01T02:45:58;8.20;99.90
33093;DHT22;19456;46.104;12.908;2023-04-01T02:48:24;8.30;99.90
33093;DHT22;19456;46.104;12.908;2023-04-01T02:50:49;8.50;99.90
33093;DHT22;19456;46.104;12.908;2023-04-01T02:53:15;8.30;99.90
33093;DHT22;19456;46.104;12.908;2023-04-01T02:55:41;8.20;99.90
33093;DHT22;19456;46.104;12.908;2023-04-01T02:58:06;8.10;99.90
33093;DHT22;19456;46.104;12.908;2023-04-01T03:00:32;8.10;99.90
33093;DHT22;19456;46.104;12.908;2023-04-01T03:02:57;8.10;99.90
33093;DHT22;19456;46.104;12.908;2023-04-01T03:05:23;8.00;99.90
33093;DHT22;19456;46.104;12.908;2023-04-01T03:07:48;8.00;99.90
33093;DHT22;19456;46.104;12.908;2023-04-01T03:10:14;8.10;99.90
33093;DHT22;19456;46.104;12.908;2023-04-01T03:12:40;8.10;99.90
33093;DHT22;19456;46.104;12.908;2023-04-01T03:15:06;8.10;99.90
33093;DHT22;19456;46.104;12.908;2023-04-01T03:17:31;8.20;99.90
33093;DHT22;19456;46.104;12.908;2023-04-01T03:19:57;8.30;99.90
33093;DHT22;19456;46.104;12.908;2023-04-01T03:22:22;8.30;99.90
33093;DHT22;19456;46.104;12.908;2023-04-01T03:24:48;8.20;99.90
33093;DHT22;19456;46.104;12.908;2023-04-01T03:27:14;8.30;99.90
33093;DHT22;19456;46.104;12.908;2023-04-01T03:29:39;8.20;99.90
33093;DHT22;19456;46.104;12.908;2023-04-01T03:32:05;8.30;99.90
33093;DHT22;19456;46.104;12.908;2023-04-01T03:34:31;8.30;99.90
33093;DHT22;19456;46.104;12.908;2023-04-01T03:36:56;8.50;99.90
33093;DHT22;19456;46.104;12.908;2023-04-01T03:39:22;8.50;99.90
33093;DHT22;19456;46.104;12.908;2023-04-01T03:41:48;8.30;99.90
33093;DHT22;19456;46.104;12.908;2023-04-01T03:44:13;8.10;99.90
33093;DHT22;19456;46.104;12.908;2023-04-01T03:46:39;8.00;99.90
33093;DHT22;19456;46.104;12.908;2023-04-01T03:49:08;8.00;99.90
33093;DHT22;19456;46.104;12.908;2023-04-01T03:51:37;8.20;99.90
33093;DHT22;19456;46.104;12.908;2023-04-01T03:54:03;8.40;99.90
33093;DHT22;19456;46.104;12.908;2023-04-01T03:56:28;8.50;99.90
33093;DHT22;19456;46.104;12.908;2023-04-01T03:58:54;8.70;99.90
33093;DHT22;19456;46.104;12.908;2023-04-01T04:01:20;8.60;99.90
33093;DHT22;19456;46.104;12.908;2023-04-01T04:03:46;8.50;99.90
33093;DHT22;19456;46.104;12.908;2023-04-01T04:06:14;8.10;99.90
33093;DHT22;19456;46.104;12.908;2023-04-01T04:08:40;7.80;99.90
33093;DHT22;19456;46.104;12.908;2023-04-01T04:11:05;7.60;99.90
33093;DHT22;19456;46.104;12.908;2023-04-01T04:13:31;7.50;99.90
33093;DHT22;19456;46.104;12.908;2023-04-01T04:15:56;7.40;99.90
33093;DHT22;19456;46.104;12.908;2023-04-01T04:18:23;7.30;99.90
33093;DHT22;19456;46.104;12.908;2023-04-01T04:20:48;7.40;99.90
33093;DHT22;19456;46.104;12.908;2023-04-01T04:23:16;7.30;99.90
33093;DHT22;19456;46.104;12.908;2023-04-01T04:25:52;7.20;99.90
33093;DHT22;19456;46.104;12.908;2023-04-01T04:28:18;7.20;99.90
33093;DHT22;19456;46.104;12.908;2023-04-01T04:30:43;7.30;99.90
33093;DHT22;19456;46.104;12.908;2023-04-01T04:33:09;7.40;99.90
33093;DHT22;19456;46.104;12.908;2023-04-01T04:35:35;7.40;99.90
33093;DHT22;19456;46.104;12.908;2023-04-01T04:38:00;7.60;99.90
33093;DHT22;19456;46.104;12.908;2023-04-01T04:40:26;7.60;99.90
33093;DHT22;19456;46.104;12.908;2023-04-01T04:42:51;7.70;99.90
33093;DHT22;19456;46.104;12.908;2023-04-01T04:45:17;7.70;99.90
33093;DHT22;19456;46.104;12.908;2023-04-01T04:47:42;7.80;99.90
33093;DHT22;19456;46.104;12.908;2023-04-01T04:50:08;7.90;99.90
33093;DHT22;19456;46.104;12.908;2023-04-01T04:52:34;8.00;99.90
33093;DHT22;19456;46.104;12.908;2023-04-01T04:54:59;7.90;99.90
33093;DHT22;19456;46.104;12.908;2023-04-01T04:57:25;7.90;99.90
33093;DHT22;19456;46.104;12.908;2023-04-01T04:59:50;8.00;99.90
33093;DHT22;19456;46.104;12.908;2023-04-01T05:02:16;8.10;99.90
33093;DHT22;19456;46.104;12.908;2023-04-01T05:04:41;8.20;99.90
33093;DHT22;19456;46.104;12.908;2023-04-01T05:07:07;8.20;99.90
33093;DHT22;19456;46.104;12.908;2023-04-01T05:09:33;8.30;99.90
33093;DHT22;19456;46.104;12.908;2023-04-01T05:11:59;8.40;99.90
33093;DHT22;19456;46.104;12.908;2023-04-01T05:14:24;8.30;99.90
33093;DHT22;19456;46.104;12.908;2023-04-01T05:16:50;8.30;99.90
33093;DHT22;19456;46.104;12.908;2023-04-01T05:19:15;8.20;99.90
33093;DHT22;19456;46.104;12.908;2023-04-01T05:21:41;8.20;99.90
33093;DHT22;19456;46.104;12.908;2023-04-01T05:24:07;8.20;99.90
33093;DHT22;19456;46.104;12.908;2023-04-01T05:26:33;8.10;99.90
33093;DHT22;19456;46.104;12.908;2023-04-01T05:28:59;8.00;99.90
33093;DHT22;19456;46.104;12.908;2023-04-01T05:31:24;7.90;99.90
33093;DHT22;19456;46.104;12.908;2023-04-01T05:33:51;7.80;99.90
33093;DHT22;19456;46.104;12.908;2023-04-01T05:36:16;7.90;99.90
33093;DHT22;19456;46.104;12.908;2023-04-01T05:38:42;7.90;99.90
33093;DHT22;19456;46.104;12.908;2023-04-01T05:41:08;8.00;99.90
33093;DHT22;19456;46.104;12.908;2023-04-01T05:43:37;8.10;99.90
33093;DHT22;19456;46.104;12.908;2023-04-01T05:46:02;8.10;99.90
33093;DHT22;19456;46.104;12.908;2023-04-01T05:48:28;8.00;99.90
33093;DHT22;19456;46.104;12.908;2023-04-01T05:50:53;7.60;99.90
33093;DHT22;19456;46.104;12.908;2023-04-01T05:53:19;7.40;99.90
33093;DHT22;19456;46.104;12.908;2023-04-01T05:55:45;7.20;99.90
33093;DHT22;19456;46.104;12.908;2023-04-01T05:58:10;7.10;99.90
33093;DHT22;19456;46.104;12.908;2023-04-01T06:00:36;7.10;99.90
33093;DHT22;19456;46.104;12.908;2023-04-01T06:03:05;7.30;99.90
33093;DHT22;19456;46.104;12.908;2023-04-01T06:27:23;7.80;99.90
33093;DHT22;19456;46.104;12.908;2023-04-01T06:32:42;7.70;99.90
33093;DHT22;19456;46.104;12.908;2023-04-01T06:35:24;7.40;99.90
33093;DHT22;19456;46.104;12.908;2023-04-01T06:43:21;7.50;99.90
33093;DHT22;19456;46.104;12.908;2023-04-01T06:45:55;7.50;99.90
33093;DHT22;19456;46.104;12.908;2023-04-01T06:51:02;7.90;99.90
33093;DHT22;19456;46.104;12.908;2023-04-01T06:53:36;8.10;99.90
33093;DHT22;19456;46.104;12.908;2023-04-01T06:56:08;8.20;99.90
33093;DHT22;19456;46.104;12.908;2023-04-01T06:58:55;8.50;99.90
33093;DHT22;19456;46.104;12.908;2023-04-01T07:01:23;8.70;99.90
33093;DHT22;19456;46.104;12.908;2023-04-01T07:06:24;9.00;99.90
33093;DHT22;19456;46.104;12.908;2023-04-01T07:08:51;9.20;99.90
33093;DHT22;19456;46.104;12.908;2023-04-01T07:11:25;9.40;99.90
33093;DHT22;19456;46.104;12.908;2023-04-01T07:17:22;9.70;99.90
33093;DHT22;19456;46.104;12.908;2023-04-01T07:20:11;9.90;99.90
33093;DHT22;19456;46.104;12.908;2023-04-01T07:22:41;9.90;99.90
33093;DHT22;19456;46.104;12.908;2023-04-01T07:25:13;10.10;99.90
33093;DHT22;19456;46.104;12.908;2023-04-01T07:27:45;10.10;99.90
33093;DHT22;19456;46.104;12.908;2023-04-01T07:30:19;10.20;99.90
33093;DHT22;19456;46.104;12.908;2023-04-01T07:35:38;10.50;99.90
33093;DHT22;19456;46.104;12.908;2023-04-01T07:38:20;10.60;99.90
33093;DHT22;19456;46.104;12.908;2023-04-01T07:58:46;11.40;99.90
33093;DHT22;19456;46.104;12.908;2023-04-01T08:01:20;11.50;99.90
33093;DHT22;19456;46.104;12.908;2023-04-01T08:04:23;11.70;99.90
33093;DHT22;19456;46.104;12.908;2023-04-01T08:06:51;11.80;99.90
33093;DHT22;19456;46.104;12.908;2023-04-01T08:10:02;12.00;99.90
33093;DHT22;19456;46.104;12.908;2023-04-01T08:12:53;12.10;99.90
33093;DHT22;19456;46.104;12.908;2023-04-01T08:19:56;12.50;99.90
33093;DHT22;19456;46.104;12.908;2023-04-01T08:22:27;12.60;99.90
33093;DHT22;19456;46.104;12.908;2023-04-01T08:24:55;12.80;99.90
33093;DHT22;19456;46.104;12.908;2023-04-01T08:29:53;12.90;99.90
33093;DHT22;19456;46.104;12.908;2023-04-01T08:32:25;12.90;99.90
33093;DHT22;19456;46.104;12.908;2023-04-01T08:34:55;13.20;99.90
33093;DHT22;19456;46.104;12.908;2023-04-01T08:37:30;13.40;99.90
33093;DHT22;19456;46.104;12.908;2023-04-01T08:40:02;13.70;99.90
33093;DHT22;19456;46.104;12.908;2023-04-01T08:45:20;14.10;99.90
33093;DHT22;19456;46.104;12.908;2023-04-01T08:53:42;14.70;99.90
33093;DHT22;19456;46.104;12.908;2023-04-01T09:17:12;15.60;99.90
33093;DHT22;19456;46.104;12.908;2023-04-01T09:22:48;15.90;99.90
33093;DHT22;19456;46.104;12.908;2023-04-01T09:28:07;15.50;99.90
33093;DHT22;19456;46.104;12.908;2023-04-01T09:35:46;15.90;99.90
33093;DHT22;19456;46.104;12.908;2023-04-01T09:40:57;16.00;99.90
33093;DHT22;19456;46.104;12.908;2023-04-01T09:48:43;16.10;99.90
33093;DHT22;19456;46.104;12.908;2023-04-01T09:51:27;16.10;99.90
33093;DHT22;19456;46.104;12.908;2023-04-01T09:59:01;15.90;99.90
33093;DHT22;19456;46.104;12.908;2023-04-01T10:27:38;16.20;99.90
33093;DHT22;19456;46.104;12.908;2023-04-01T10:30:19;16.40;99.90
33093;DHT22;19456;46.104;12.908;2023-04-01T11:43:16;20.60;99.90
33093;DHT22;19456;46.104;12.908;2023-04-01T11:45:50;20.90;99.90
33093;DHT22;19456;46.104;12.908;2023-04-01T11:51:11;21.70;99.90
33093;DHT22;19456;46.104;12.908;2023-04-01T11:58:55;21.90;99.90
33093;DHT22;19456;46.104;12.908;2023-04-01T12:09:14;21.60;99.90
33093;DHT22;19456;46.104;12.908;2023-04-01T12:11:44;21.90;99.90
33093;DHT22;19456;46.104;12.908;2023-04-01T12:17:00;22.00;99.90
33093;DHT22;19456;46.104;12.908;2023-04-01T12:19:26;21.90;99.90
33093;DHT22;19456;46.104;12.908;2023-04-01T12:30:30;23.70;99.90
33093;DHT22;19456;46.104;12.908;2023-04-01T12:47:44;24.30;99.00
33093;DHT22;19456;46.104;12.908;2023-04-01T12:50:28;24.00;98.00
33093;DHT22;19456;46.104;12.908;2023-04-01T12:55:42;24.30;98.20
33093;DHT22;19456;46.104;12.908;2023-04-01T13:36:53;26.20;89.30
33093;DHT22;19456;46.104;12.908;2023-04-01T13:39:29;26.20;88.00
33093;DHT22;19456;46.104;12.908;2023-04-01T13:44:41;26.30;85.50
33093;DHT22;19456;46.104;12.908;2023-04-01T14:10:30;26.20;81.30
33093;DHT22;19456;46.104;12.908;2023-04-01T14:13:02;26.10;82.30
33093;DHT22;19456;46.104;12.908;2023-04-01T14:17:56;26.30;82.10
33093;DHT22;19456;46.104;12.908;2023-04-01T14:20:29;26.70;81.40
33093;DHT22;19456;46.104;12.908;2023-04-01T14:25:44;27.10;79.70
33093;DHT22;19456;46.104;12.908;2023-04-01T14:33:23;28.50;76.50
33093;DHT22;19456;46.104;12.908;2023-04-01T14:38:42;28.80;72.80
33093;DHT22;19456;46.104;12.908;2023-04-01T14:48:38;28.10;69.60
33093;DHT22;19456;46.104;12.908;2023-04-01T14:51:15;27.80;69.10
33093;DHT22;19456;46.104;12.908;2023-04-01T14:53:43;27.60;69.80
33093;DHT22;19456;46.104;12.908;2023-04-01T14:56:11;28.20;69.00
33093;DHT22;19456;46.104;12.908;2023-04-01T15:03:38;27.90;70.40
33093;DHT22;19456;46.104;12.908;2023-04-01T15:09:01;26.80;74.50
33093;DHT22;19456;46.104;12.908;2023-04-01T15:11:29;26.90;72.80
33093;DHT22;19456;46.104;12.908;2023-04-01T15:39:47;28.20;69.10
33093;DHT22;19456;46.104;12.908;2023-04-01T15:47:31;25.20;75.60
33093;DHT22;19456;46.104;12.908;2023-04-01T15:50:12;25.50;75.70
33093;DHT22;19456;46.104;12.908;2023-04-01T15:52:56;25.20;75.80
33093;DHT22;19456;46.104;12.908;2023-04-01T15:55:37;25.20;76.20
33093;DHT22;19456;46.104;12.908;2023-04-01T16:00:55;24.00;79.80
33093;DHT22;19456;46.104;12.908;2023-04-01T16:08:49;23.10;83.00
33093;DHT22;19456;46.104;12.908;2023-04-01T16:16:23;20.60;90.10
33093;DHT22;19456;46.104;12.908;2023-04-01T16:26:55;18.90;96.40
33093;DHT22;19456;46.104;12.908;2023-04-01T16:29:26;18.70;98.60
33093;DHT22;19456;46.104;12.908;2023-04-01T16:32:03;18.50;99.90
33093;DHT22;19456;46.104;12.908;2023-04-01T16:34:44;18.50;99.90
33093;DHT22;19456;46.104;12.908;2023-04-01T16:37:17;18.40;99.90
33093;DHT22;19456;46.104;12.908;2023-04-01T16:45:23;18.10;99.90
33093;DHT22;19456;46.104;12.908;2023-04-01T16:47:51;17.90;99.90
33093;DHT22;19456;46.104;12.908;2023-04-01T16:50:23;17.80;99.90
33093;DHT22;19456;46.104;12.908;2023-04-01T16:52:55;17.70;99.90
33093;DHT22;19456;46.104;12.908;2023-04-01T16:55:34;17.60;99.90
33093;DHT22;19456;46.104;12.908;2023-04-01T16:58:00;17.50;99.90
33093;DHT22;19456;46.104;12.908;2023-04-01T17:00:27;17.40;99.90
33093;DHT22;19456;46.104;12.908;2023-04-01T17:13:35;16.80;99.90
33093;DHT22;19456;46.104;12.908;2023-04-01T17:18:57;16.70;99.90
33093;DHT22;19456;46.104;12.908;2023-04-01T17:26:17;16.60;99.90
33093;DHT22;19456;46.104;12.908;2023-04-01T17:34:02;16.40;99.90
33093;DHT22;19456;46.104;12.908;2023-04-01T17:36:42;16.30;99.90
33093;DHT22;19456;46.104;12.908;2023-04-01T17:39:16;16.20;99.90
33093;DHT22;19456;46.104;12.908;2023-04-01T17:41:48;16.20;99.90
33093;DHT22;19456;46.104;12.908;2023-04-01T17:47:12;16.00;99.90
33093;DHT22;19456;46.104;12.908;2023-04-01T17:49:42;15.90;99.90
33093;DHT22;19456;46.104;12.908;2023-04-01T17:52:23;15.80;99.90
33093;DHT22;19456;46.104;12.908;2023-04-01T18:05:01;15.70;99.90
33093;DHT22;19456;46.104;12.908;2023-04-01T18:10:28;15.50;99.90
33093;DHT22;19456;46.104;12.908;2023-04-01T18:25:46;14.80;99.90
33093;DHT22;19456;46.104;12.908;2023-04-01T18:30:42;14.90;99.90
33093;DHT22;19456;46.104;12.908;2023-04-01T18:33:31;14.80;99.90
33093;DHT22;19456;46.104;12.908;2023-04-01T18:36:05;14.60;99.90
33093;DHT22;19456;46.104;12.908;2023-04-01T18:38:36;14.50;99.90
33093;DHT22;19456;46.104;12.908;2023-04-01T18:49:10;14.50;99.90
33093;DHT22;19456;46.104;12.908;2023-04-01T18:51:46;14.50;99.90
33093;DHT22;19456;46.104;12.908;2023-04-01T18:54:21;14.50;99.90
33093;DHT22;19456;46.104;12.908;2023-04-01T18:56:49;14.40;99.90
33093;DHT22;19456;46.104;12.908;2023-04-01T18:59:25;14.20;99.90
33093;DHT22;19456;46.104;12.908;2023-04-01T19:04:39;14.10;99.90
33093;DHT22;19456;46.104;12.908;2023-04-01T19:09:50;14.10;99.90
33093;DHT22;19456;46.104;12.908;2023-04-01T19:12:26;14.00;99.90
33093;DHT22;19456;46.104;12.908;2023-04-01T19:21:07;13.80;99.90
33093;DHT22;19456;46.104;12.908;2023-04-01T19:25:34;13.70;99.90
33093;DHT22;19456;46.104;12.908;2023-04-01T19:28:26;13.70;99.90
33093;DHT22;19456;46.104;12.908;2023-04-01T19:33:25;13.60;99.90
33093;DHT22;19456;46.104;12.908;2023-04-01T19:48:32;12.90;99.90
33093;DHT22;19456;46.104;12.908;2023-04-01T19:51:19;12.60;99.90
33093;DHT22;19456;46.104;12.908;2023-04-01T19:53:49;12.50;99.90
33093;DHT22;19456;46.104;12.908;2023-04-01T19:56:19;12.40;99.90
33093;DHT22;19456;46.104;12.908;2023-04-01T19:58:54;12.20;99.90
33093;DHT22;19456;46.104;12.908;2023-04-01T20:03:51;12.10;99.90
33093;DHT22;19456;46.104;12.908;2023-04-01T20:16:26;12.40;99.90
33093;DHT22;19456;46.104;12.908;2023-04-01T20:19:04;12.30;99.90
33093;DHT22;19456;46.104;12.908;2023-04-01T20:26:33;12.30;99.90
33093;DHT22;19456;46.104;12.908;2023-04-01T20:31:49;12.30;99.90
33093;DHT22;19456;46.104;12.908;2023-04-01T20:57:12;12.30;99.90
33093;DHT22;19456;46.104;12.908;2023-04-01T21:00:22;12.30;99.90
33093;DHT22;19456;46.104;12.908;2023-04-01T21:07:52;12.40;99.90
33093;DHT22;19456;46.104;12.908;2023-04-01T21:29:33;11.90;99.90
33093;DHT22;19456;46.104;12.908;2023-04-01T21:31:39;11.90;99.90
33093;DHT22;19456;46.104;12.908;2023-04-01T21:39:56;12.30;99.90
33093;DHT22;19456;46.104;12.908;2023-04-01T21:42:26;12.20;99.90
33093;DHT22;19456;46.104;12.908;2023-04-01T22:06:22;12.00;99.90
33093;DHT22;19456;46.104;12.908;2023-04-01T22:11:31;12.10;99.90
33093;DHT22;19456;46.104;12.908;2023-04-01T22:14:01;12.10;99.90
33093;DHT22;19456;46.104;12.908;2023-04-01T22:21:41;12.10;99.90
33093;DHT22;19456;46.104;12.908;2023-04-01T22:24:29;12.10;99.90
33093;DHT22;19456;46.104;12.908;2023-04-01T22:30:09;11.90;99.90
33093;DHT22;19456;46.104;12.908;2023-04-01T22:32:16;11.80;99.90
33093;DHT22;19456;46.104;12.908;2023-04-01T22:37:32;11.70;99.90
33093;DHT22;19456;46.104;12.908;2023-04-01T22:40:21;11.70;99.90
33093;DHT22;19456;46.104;12.908;2023-04-01T22:43:05;11.70;99.90
33093;DHT22;19456;46.104;12.908;2023-04-01T22:50:35;11.60;99.90
33093;DHT22;19456;46.104;12.908;2023-04-01T22:53:08;11.60;99.90
33093;DHT22;19456;46.104;12.908;2023-04-01T22:55:40;11.60;99.90
33093;DHT22;19456;46.104;12.908;2023-04-01T22:58:11;11.50;99.90
33093;DHT22;19456;46.104;12.908;2023-04-01T23:03:37;11.50;99.90
33093;DHT22;19456;46.104;12.908;2023-04-01T23:06:05;11.40;99.90
33093;DHT22;19456;46.104;12.908;2023-04-01T23:11:11;11.30;99.90
33093;DHT22;19456;46.104;12.908;2023-04-01T23:13:46;11.30;99.90
33093;DHT22;19456;46.104;12.908;2023-04-01T23:16:13;11.20;99.90
33093;DHT22;19456;46.104;12.908;2023-04-01T23:21:18;11.00;99.90
33093;DHT22;19456;46.104;12.908;2023-04-01T23:26:17;11.00;99.90
33093;DHT22;19456;46.104;12.908;2023-04-01T23:28:49;10.90;99.90
33093;DHT22;19456;46.104;12.908;2023-04-01T23:31:26;10.90;99.90
33093;DHT22;19456;46.104;12.908;2023-04-01T23:33:53;10.80;99.90
33093;DHT22;19456;46.104;12.908;2023-04-01T23:36:19;10.80;99.90
33093;DHT22;19456;46.104;12.908;2023-04-01T23:38:46;10.80;99.90
33093;DHT22;19456;46.104;12.908;2023-04-01T23:41:21;10.70;99.90
33093;DHT22;19456;46.104;12.908;2023-04-01T23:43:59;10.60;99.90
33093;DHT22;19456;46.104;12.908;2023-04-01T23:46:25;10.60;99.90
33093;DHT22;19456;46.104;12.908;2023-04-01T23:48:51;10.50;99.90
33093;DHT22;19456;46.104;12.908;2023-04-01T23:51:27;10.50;99.90
33093;DHT22;19456;46.104;12.908;2023-04-01T23:54:03;10.50;99.90
33093;DHT22;19456;46.104;12.908;2023-04-01T23:56:37;10.50;99.90
33093;DHT22;19456;46.104;12.908;2023-04-01T23:59:03;10.50;99.90
